Time;durP1;ratioP1;P1;durP2;ratioP2;P2;SDS_P1;SDS_P2;PMS_P1;PMS_P2;Temp;Humidity;BMP_temperature;BMP_pressure;BME280_temperature;BME280_humidity;BME280_pressure;Samples;Min_cycle;Max_cycle;Signal;HPM_P1;HPM_P2
2022/08/02 00:02:15;;;;;;;9.93;3.72;;;;;;;20.18;62.40;100215.97;5033586;28;20060;-62
2022/08/02 00:05:03;;;;;;;7.07;3.55;;;;;;;20.18;62.28;100223.84;5032615;28;20480;-62
2022/08/02 00:07:47;;;;;;;5.38;3.10;;;;;;;20.17;62.37;100217.75;5032820;28;20134;-62
2022/08/02 00:10:32;;;;;;;4.88;3.15;;;;;;;20.16;62.36;100209.91;5033362;28;20057;-61
2022/08/02 00:13:19;;;;;;;4.68;3.08;;;;;;;20.15;62.22;100211.66;5033635;28;20046;-61
2022/08/02 00:16:03;;;;;;;5.72;3.25;;;;;;;20.15;62.21;100216.06;5032537;28;20099;-61
2022/08/02 00:18:50;;;;;;;4.88;3.25;;;;;;;20.14;62.35;100215.16;5033547;28;20404;-60
2022/08/02 00:21:37;;;;;;;4.45;3.45;;;;;;;20.14;62.38;100212.53;5032644;28;20047;-63
2022/08/02 00:24:24;;;;;;;8.20;3.50;;;;;;;20.13;62.25;100213.44;5032578;28;20048;-63
2022/08/02 00:27:13;;;;;;;5.95;3.67;;;;;;;20.12;62.19;100205.59;5032553;28;20049;-62
2022/08/02 00:30:04;;;;;;;6.80;3.42;;;;;;;20.11;62.26;100203.84;5032531;28;20052;-63
2022/08/02 00:32:50;;;;;;;5.72;3.50;;;;;;;20.11;62.36;100209.13;5032382;28;20460;-62
2022/08/02 00:35:37;;;;;;;5.95;3.10;;;;;;;20.10;62.21;100202.13;5033075;28;20064;-62
2022/08/02 00:38:24;;;;;;;7.78;3.45;;;;;;;20.08;62.33;100202.16;5033167;28;20052;-63
2022/08/02 00:41:17;;;;;;;7.32;2.85;;;;;;;20.07;62.17;100197.81;5032435;28;20060;-62
2022/08/02 00:44:01;;;;;;;5.67;3.87;;;;;;;20.06;62.39;100204.81;5033436;28;20135;-61
2022/08/02 00:46:46;;;;;;;5.10;3.60;;;;;;;20.06;62.41;100199.56;5033096;28;20298;-61
2022/08/02 00:49:33;;;;;;;5.70;3.40;;;;;;;20.05;62.16;100189.06;5032009;28;20095;-61
2022/08/02 00:52:23;;;;;;;6.25;3.80;;;;;;;20.05;62.21;100189.91;5033324;28;20044;-62
2022/08/02 00:55:07;;;;;;;4.53;3.58;;;;;;;20.04;62.36;100189.97;5034956;28;20049;-63
2022/08/02 00:57:52;;;;;;;7.63;4.32;;;;;;;20.03;62.27;100190.88;5036715;28;20080;-62
2022/08/02 01:00:36;;;;;;;7.47;4.43;;;;;;;20.03;62.10;100193.50;5035987;28;20090;-61
2022/08/02 01:03:20;;;;;;;6.75;3.85;;;;;;;20.03;62.22;100196.97;5036993;28;20084;-61
2022/08/02 01:06:04;;;;;;;5.53;3.75;;;;;;;20.02;62.41;100195.25;5036506;28;20072;-62
2022/08/02 01:08:48;;;;;;;9.10;4.38;;;;;;;20.03;62.29;100196.13;5036561;28;20053;-62
2022/08/02 01:11:35;;;;;;;7.05;4.13;;;;;;;20.01;62.15;100196.13;5036858;28;20130;-62
2022/08/02 01:14:24;;;;;;;7.25;3.78;;;;;;;20.02;62.36;100189.13;5036430;28;20520;-62
2022/08/02 01:17:22;;;;;;;7.00;4.15;;;;;;;20.02;62.34;100183.88;5035643;28;20044;-62
2022/08/02 01:20:25;;;;;;;5.95;3.88;;;;;;;20.01;62.30;100185.63;5036642;28;20067;-62
2022/08/02 01:23:28;;;;;;;6.85;4.13;;;;;;;20.02;62.27;100183.88;5036519;28;20092;-61
2022/08/02 01:26:24;;;;;;;5.97;3.75;;;;;;;20.01;62.38;100180.34;5036306;28;20060;-61
2022/08/02 01:29:40;;;;;;;5.50;3.92;;;;;;;20.02;62.56;100183.88;5036386;28;20064;-61
2022/08/02 01:32:35;;;;;;;5.78;3.70;;;;;;;20.00;62.33;100183.91;5036217;28;20080;-62
2022/08/02 01:35:26;;;;;;;7.57;3.35;;;;;;;20.00;62.34;100185.66;5035031;28;20519;-61
2022/08/02 01:38:28;;;;;;;4.80;3.50;;;;;;;20.00;62.24;100180.41;5036388;28;20112;-62
2022/08/02 01:41:20;;;;;;;6.07;3.50;;;;;;;20.00;62.32;100176.03;5035594;28;20068;-61
2022/08/02 01:44:04;;;;;;;4.43;3.28;;;;;;;20.00;62.48;100172.50;5035346;28;20079;-61
2022/08/02 01:46:50;;;;;;;7.05;3.55;;;;;;;20.00;62.50;100169.88;5035903;28;20040;-61
2022/08/02 01:49:36;;;;;;;5.93;3.20;;;;;;;19.98;62.51;100169.91;5035174;28;20092;-61
2022/08/02 01:52:22;;;;;;;4.75;3.30;;;;;;;19.99;62.44;100166.41;5036174;28;20095;-61
2022/08/02 01:55:08;;;;;;;4.75;3.10;;;;;;;20.00;62.64;100165.50;5035114;28;20084;-61
2022/08/02 01:58:03;;;;;;;5.72;3.58;;;;;;;20.00;62.36;100167.25;5034999;28;20064;-61
2022/08/02 02:00:51;;;;;;;8.68;3.38;;;;;;;20.00;62.42;100165.50;5034882;28;20072;-61
2022/08/02 02:03:41;;;;;;;4.22;3.10;;;;;;;20.00;62.54;100160.25;5035367;28;20527;-61
2022/08/02 02:06:29;;;;;;;5.03;3.05;;;;;;;20.00;62.56;100164.63;5033769;28;20436;-61
2022/08/02 02:09:18;;;;;;;3.85;3.00;;;;;;;19.99;62.56;100158.50;5034978;28;20056;-61
2022/08/02 02:12:09;;;;;;;4.97;3.20;;;;;;;19.99;62.71;100157.63;5035760;28;20076;-61
2022/08/02 02:14:54;;;;;;;7.10;3.28;;;;;;;19.99;62.70;100158.50;5035526;28;20087;-61
2022/08/02 02:17:42;;;;;;;5.82;3.17;;;;;;;19.99;62.75;100153.25;5035421;28;20179;-61
2022/08/02 02:20:30;;;;;;;5.57;3.45;;;;;;;19.99;62.59;100147.09;5035529;28;20048;-61
2022/08/02 02:23:14;;;;;;;5.60;3.22;;;;;;;19.99;62.52;100136.59;5034826;28;20092;-61
2022/08/02 02:26:06;;;;;;;5.18;3.17;;;;;;;19.98;62.38;100135.72;5035012;28;20037;-60
2022/08/02 02:28:52;;;;;;;4.50;2.95;;;;;;;19.98;62.72;100137.47;5035323;28;20104;-61
2022/08/02 02:31:39;;;;;;;5.40;3.17;;;;;;;19.98;62.83;100132.22;5035231;28;20076;-63
2022/08/02 02:34:34;;;;;;;4.80;3.10;;;;;;;19.97;62.52;100133.13;5035004;28;20084;-61
2022/08/02 02:37:21;;;;;;;5.60;3.65;;;;;;;19.96;62.61;100121.75;5034259;28;20432;-63
2022/08/02 02:40:09;;;;;;;4.55;3.00;;;;;;;19.95;62.73;100130.53;5034063;28;20044;-60
2022/08/02 02:42:55;;;;;;;5.07;3.45;;;;;;;19.93;62.68;100122.66;5034821;28;20462;-62
2022/08/02 02:45:41;;;;;;;3.85;3.10;;;;;;;19.91;62.67;100129.75;5034477;28;20125;-62
2022/08/02 02:48:28;;;;;;;5.60;3.35;;;;;;;19.92;62.83;100128.84;5034131;28;20575;-62
2022/08/02 02:51:13;;;;;;;7.57;2.95;;;;;;;19.90;62.77;100120.13;5034016;28;20119;-62
2022/08/02 02:53:58;;;;;;;5.47;3.40;;;;;;;19.90;62.79;100127.13;5034898;28;20120;-62
2022/08/02 02:56:44;;;;;;;4.72;3.22;;;;;;;19.89;62.84;100120.13;5034163;28;20396;-62
2022/08/02 02:59:29;;;;;;;5.25;2.85;;;;;;;19.87;62.74;100119.28;5033504;28;20179;-62
2022/08/02 03:02:16;;;;;;;7.10;3.65;;;;;;;19.86;62.59;100121.03;5034678;28;20061;-62
2022/08/02 03:05:02;;;;;;;8.00;3.33;;;;;;;19.83;62.83;100115.00;5033781;28;20049;-61
2022/08/02 03:07:49;;;;;;;5.10;3.20;;;;;;;19.81;62.80;100109.75;5034721;28;20103;-62
2022/08/02 03:10:36;;;;;;;4.45;3.28;;;;;;;19.78;62.97;100104.53;5033712;28;20080;-61
2022/08/02 03:13:24;;;;;;;6.28;3.00;;;;;;;19.77;62.58;100110.72;5033849;28;20095;-61
2022/08/02 03:16:12;;;;;;;5.22;3.38;;;;;;;19.74;62.69;100103.75;5033357;28;20055;-61
2022/08/02 03:19:02;;;;;;;4.95;3.28;;;;;;;19.74;62.61;100103.75;5033448;28;20059;-60
2022/08/02 03:21:49;;;;;;;4.80;3.25;;;;;;;19.73;62.82;100115.16;5034240;28;20052;-61
2022/08/02 03:24:33;;;;;;;4.13;3.40;;;;;;;19.73;62.92;100106.41;5033093;28;20072;-61
2022/08/02 03:27:17;;;;;;;5.60;3.78;;;;;;;19.74;63.16;100111.63;5034268;28;20076;-61
2022/08/02 03:30:03;;;;;;;4.93;3.28;;;;;;;19.73;63.11;100117.78;5033886;28;20052;-61
2022/08/02 03:32:50;;;;;;;4.18;3.22;;;;;;;19.72;62.87;100105.53;5033189;28;20080;-61
2022/08/02 03:35:34;;;;;;;3.92;2.90;;;;;;;19.72;62.98;100107.31;5033202;28;20076;-60
2022/08/02 03:38:20;;;;;;;6.90;3.65;;;;;;;19.70;62.94;100107.34;5033429;28;20049;-61
2022/08/02 03:41:09;;;;;;;3.88;3.10;;;;;;;19.69;62.88;100110.88;5032762;28;20532;-61
2022/08/02 03:44:00;;;;;;;6.47;3.45;;;;;;;19.69;62.88;100120.53;5033141;28;20048;-61
2022/08/02 03:46:47;;;;;;;5.30;3.42;;;;;;;19.69;63.00;100120.53;5032515;28;20124;-61
2022/08/02 03:49:42;;;;;;;4.30;3.28;;;;;;;19.67;63.10;100125.81;5032418;28;20480;-61
2022/08/02 03:52:31;;;;;;;5.33;3.50;;;;;;;19.67;62.91;100128.44;5032918;28;20123;-61
2022/08/02 03:55:21;;;;;;;7.72;3.63;;;;;;;19.67;63.27;100124.94;5032508;28;20187;-61
2022/08/02 03:58:05;;;;;;;6.00;3.63;;;;;;;19.66;63.12;100125.84;5032802;28;20179;-61
2022/08/02 04:00:51;;;;;;;5.25;3.40;;;;;;;19.65;63.25;100129.34;5032644;28;20103;-62
2022/08/02 04:03:35;;;;;;;7.45;3.92;;;;;;;19.63;63.29;100121.50;5032201;28;20056;-62
2022/08/02 04:06:22;;;;;;;3.83;3.40;;;;;;;19.62;63.12;100125.88;5033275;28;20545;-61
2022/08/02 04:09:06;;;;;;;6.50;3.42;;;;;;;19.61;63.30;100128.56;5033709;28;20063;-62
2022/08/02 04:11:50;;;;;;;5.18;3.50;;;;;;;19.59;63.13;100123.34;5033777;28;20121;-61
2022/08/02 04:14:34;;;;;;;5.43;3.15;;;;;;;19.58;63.15;100124.25;5033586;28;20052;-61
2022/08/02 04:17:20;;;;;;;8.75;3.90;;;;;;;19.57;63.38;100124.25;5032670;28;20083;-61
2022/08/02 04:20:21;;;;;;;4.68;3.25;;;;;;;19.54;63.13;100121.72;5032361;28;20060;-62
2022/08/02 04:23:13;;;;;;;5.97;4.05;;;;;;;19.51;63.35;100127.03;5033435;28;20040;-61
2022/08/02 04:26:03;;;;;;;3.80;3.35;;;;;;;19.51;63.31;100130.50;5032415;28;20519;-61
2022/08/02 04:28:51;;;;;;;5.38;3.55;;;;;;;19.50;63.43;100135.81;5033964;28;20052;-61
2022/08/02 04:31:35;;;;;;;6.47;3.45;;;;;;;19.48;63.50;100136.69;5037550;28;20056;-60
2022/08/02 04:34:19;;;;;;;4.47;3.75;;;;;;;19.49;63.42;100134.91;5036592;28;20094;-63
2022/08/02 04:37:07;;;;;;;4.18;3.25;;;;;;;19.47;63.41;100137.59;5036382;28;20049;-60
2022/08/02 04:39:53;;;;;;;5.50;3.88;;;;;;;19.48;63.60;100133.19;5036515;28;20048;-60
2022/08/02 04:42:39;;;;;;;5.97;3.65;;;;;;;19.47;63.67;100131.44;5036194;28;20133;-60
2022/08/02 04:45:25;;;;;;;5.13;3.97;;;;;;;19.46;63.73;100120.09;5037263;28;20040;-61
2022/08/02 04:48:09;;;;;;;8.18;4.22;;;;;;;19.46;63.74;100119.25;5036187;28;20052;-61
2022/08/02 04:50:56;;;;;;;6.57;4.13;;;;;;;19.47;63.76;100113.06;5037229;28;20088;-61
2022/08/02 04:53:46;;;;;;;5.53;4.18;;;;;;;19.47;63.80;100119.19;5036738;28;20079;-61
2022/08/02 04:56:32;;;;;;;3.83;3.30;;;;;;;19.48;63.70;100123.56;5036218;28;20044;-60
2022/08/02 04:59:22;;;;;;;5.45;3.50;;;;;;;19.48;63.76;100130.56;5036129;28;20094;-61
2022/08/02 05:02:09;;;;;;;7.43;3.90;;;;;;;19.48;63.69;100122.66;5035642;28;20464;-61
2022/08/02 05:04:56;;;;;;;4.25;3.53;;;;;;;19.49;63.64;100127.03;5036146;28;20044;-60
2022/08/02 05:07:43;;;;;;;4.60;3.47;;;;;;;19.48;63.87;100128.81;5036103;28;20072;-61
2022/08/02 05:10:27;;;;;;;7.00;3.97;;;;;;;19.49;63.87;100132.28;5036903;28;20044;-61
2022/08/02 05:13:16;;;;;;;6.40;3.75;;;;;;;19.48;63.77;100136.69;5036596;28;20052;-61
2022/08/02 05:16:03;;;;;;;6.53;3.50;;;;;;;19.48;63.74;100139.31;5035518;28;20172;-60
2022/08/02 05:18:49;;;;;;;6.25;3.75;;;;;;;19.48;63.79;100141.06;5035570;28;20060;-60
2022/08/02 05:21:36;;;;;;;6.85;4.00;;;;;;;19.48;64.10;100134.06;5035762;28;20052;-62
2022/08/02 05:24:20;;;;;;;6.60;4.57;;;;;;;19.48;63.96;100133.19;5036675;28;20095;-60
2022/08/02 05:27:07;;;;;;;5.10;3.88;;;;;;;19.48;63.90;100127.94;5036846;28;20119;-62
2022/08/02 05:29:53;;;;;;;4.85;3.50;;;;;;;19.49;64.02;100129.66;5035592;28;20040;-62
2022/08/02 05:32:51;;;;;;;7.38;3.50;;;;;;;19.47;63.99;100127.06;5036333;28;20057;-62
2022/08/02 05:35:37;;;;;;;7.78;4.90;;;;;;;19.47;64.06;100121.81;5036049;28;20508;-62
2022/08/02 05:38:25;;;;;;;7.63;3.60;;;;;;;19.48;64.13;100131.44;5035482;28;20056;-62
2022/08/02 05:41:14;;;;;;;6.55;3.92;;;;;;;19.51;64.18;100135.75;5034228;28;20515;-62
2022/08/02 05:44:02;;;;;;;4.80;3.83;;;;;;;19.51;64.24;100135.75;5035329;28;20056;-60
2022/08/02 05:46:52;;;;;;;7.28;3.88;;;;;;;19.53;64.27;100141.00;5035015;28;20048;-60
2022/08/02 05:49:41;;;;;;;14.70;4.75;;;;;;;19.54;64.18;100137.47;5035968;28;20060;-60
2022/08/02 05:52:46;;;;;;;30.42;7.95;;;;;;;19.56;64.34;100135.66;5035025;28;20785;-62
2022/08/02 05:55:39;;;;;;;14.98;5.18;;;;;;;19.56;64.49;100133.03;5036040;28;20106;-62
2022/08/02 05:58:55;;;;;;;27.67;6.35;;;;;;;19.57;64.55;100133.03;5035051;28;20100;-61
2022/08/02 06:01:41;;;;;;;19.63;5.13;;;;;;;19.59;64.27;100135.59;5034663;28;20136;-61
2022/08/02 06:04:36;;;;;;;28.75;6.38;;;;;;;19.62;64.56;100127.66;5034895;28;20060;-60
2022/08/02 06:07:21;;;;;;;18.90;4.82;;;;;;;19.63;64.51;100134.66;5034899;28;20053;-60
2022/08/02 06:10:06;;;;;;;159.95;25.92;;;;;;;19.66;64.59;100128.47;5035507;28;20048;-62
2022/08/02 06:13:00;;;;;;;115.03;14.40;;;;;;;19.67;64.56;100131.09;5034539;28;20044;-61
2022/08/02 06:15:44;;;;;;;41.65;7.18;;;;;;;19.69;64.54;100128.41;5034832;28;20183;-61
2022/08/02 06:18:28;;;;;;;1999.90;456.08;;;;;;;19.70;64.53;100127.50;5034269;28;20044;-61
2022/08/02 06:21:16;;;;;;;1348.80;216.20;;;;;;;19.72;64.67;100126.56;5035568;28;20057;-60
2022/08/02 06:24:01;;;;;;;1259.30;208.63;;;;;;;19.74;64.47;100132.66;5034721;28;20047;-61
2022/08/02 06:26:53;;;;;;;822.45;121.10;;;;;;;19.75;64.83;100133.56;5035134;28;20137;-61
2022/08/02 06:29:39;;;;;;;438.15;60.40;;;;;;;19.75;64.72;100137.03;5035096;28;20400;-61
2022/08/02 06:32:33;;;;;;;376.25;53.95;;;;;;;19.76;64.72;100140.53;5035012;28;20053;-61
2022/08/02 06:35:17;;;;;;;293.88;41.25;;;;;;;19.75;64.51;100139.66;5048440;28;20051;-61
2022/08/02 06:38:10;;;;;;;172.07;29.00;;;;;;;19.76;64.65;100146.66;5034975;28;20094;-61
2022/08/02 06:41:02;;;;;;;170.95;25.88;;;;;;;19.77;64.80;100150.16;5034286;28;20125;-61
2022/08/02 06:44:02;;;;;;;139.02;22.30;;;;;;;19.78;64.84;100151.88;5034869;28;20056;-61
2022/08/02 06:46:47;;;;;;;113.70;17.73;;;;;;;19.78;64.65;100158.00;5034060;28;20523;-61
2022/08/02 06:49:36;;;;;;;;;;;;;;;19.77;64.63;100148.38;5034420;28;20405;-61
2022/08/02 06:52:29;;;;;;;59.35;12.52;;;;;;;19.77;64.66;100161.53;5047529;28;19920;-61
2022/08/02 06:55:19;;;;;;;45.90;9.73;;;;;;;19.76;64.94;100154.53;5034578;28;20056;-62
2022/08/02 06:58:10;;;;;;;31.48;8.38;;;;;;;19.77;64.86;100150.16;5034938;28;20044;-61
2022/08/02 07:00:54;;;;;;;36.67;7.47;;;;;;;19.79;64.96;100156.22;5033746;28;20107;-62
2022/08/02 07:03:40;;;;;;;18.25;6.97;;;;;;;19.78;64.91;100149.25;5033359;28;20487;-61
2022/08/02 07:06:24;;;;;;;23.60;6.55;;;;;;;19.81;64.91;100150.97;5033442;28;20091;-61
2022/08/02 07:09:08;;;;;;;23.67;6.68;;;;;;;19.81;64.74;100164.09;5034688;28;20048;-61
2022/08/02 07:11:52;;;;;;;;;;;;;;;19.80;64.84;100165.00;5035032;28;20393;-61
2022/08/02 07:14:38;;;;;;;24.57;6.07;;;;;;;19.78;65.01;100163.28;5034404;28;19997;-61
2022/08/02 07:17:22;;;;;;;13.35;6.07;;;;;;;19.80;64.90;100167.63;5033342;28;20319;-61
2022/08/02 07:20:09;;;;;;;10.88;5.75;;;;;;;19.81;65.05;100161.47;5034118;28;20060;-61
2022/08/02 07:22:56;;;;;;;9.85;4.93;;;;;;;19.83;65.00;100163.16;5033244;28;20068;-63
2022/08/02 07:25:41;;;;;;;13.82;5.10;;;;;;;19.83;65.03;100160.53;5034222;28;20413;-63
2022/08/02 07:28:25;;;;;;;14.52;5.80;;;;;;;19.86;64.97;100170.13;5034353;28;20129;-62
2022/08/02 07:31:12;;;;;;;17.00;5.28;;;;;;;19.86;65.06;100165.75;5032924;28;20179;-62
2022/08/02 07:33:56;;;;;;;7.10;4.72;;;;;;;19.89;64.92;100159.56;5033915;28;20067;-62
2022/08/02 07:36:42;;;;;;;7.45;4.50;;;;;;;19.89;65.23;100164.84;5034665;28;20049;-62
2022/08/02 07:39:26;;;;;;;12.43;4.57;;;;;;;19.88;64.97;100160.47;5033033;28;20133;-62
2022/08/02 07:42:13;;;;;;;9.90;4.68;;;;;;;19.89;65.10;100160.47;5034006;28;20405;-62
2022/08/02 07:44:57;;;;;;;7.90;4.32;;;;;;;19.90;65.14;100156.03;5032943;28;20160;-62
2022/08/02 07:47:47;;;;;;;8.35;4.20;;;;;;;19.91;64.96;100156.03;5032691;28;20454;-62
2022/08/02 07:50:34;;;;;;;9.88;4.72;;;;;;;19.92;65.07;100160.41;5032978;28;20175;-62
2022/08/02 07:53:19;;;;;;;5.70;4.05;;;;;;;19.93;65.21;100164.72;5033182;28;20052;-63
2022/08/02 07:56:03;;;;;;;9.40;4.40;;;;;;;19.94;65.08;100157.72;5033311;28;20052;-62
2022/08/02 07:58:47;;;;;;;5.45;4.30;;;;;;;19.96;65.17;100169.09;5033731;28;20111;-63
2022/08/02 08:01:34;;;;;;;10.93;4.18;;;;;;;19.97;65.10;100167.31;5033519;28;20440;-62
2022/08/02 08:04:18;;;;;;;6.28;4.07;;;;;;;19.99;64.99;100170.78;5032417;28;20047;-61
2022/08/02 08:07:08;;;;;;;11.07;3.75;;;;;;;19.98;64.87;100162.03;5033428;28;20147;-61
2022/08/02 08:09:52;;;;;;;12.00;4.40;;;;;;;20.01;65.22;100168.97;5032494;28;20523;-61
2022/08/02 08:12:36;;;;;;;7.28;4.15;;;;;;;20.01;65.10;100163.72;5032747;28;20064;-61
2022/08/02 08:15:23;;;;;;;11.38;4.18;;;;;;;20.02;65.06;100154.94;5033407;28;20103;-62
2022/08/02 08:18:10;;;;;;;6.68;3.63;;;;;;;20.03;65.09;100154.88;5032735;28;20480;-62
2022/08/02 08:20:57;;;;;;;6.10;4.05;;;;;;;20.02;65.18;100150.53;5032468;28;20560;-63
2022/08/02 08:23:41;;;;;;;6.75;3.92;;;;;;;20.05;64.94;100157.50;5032701;28;20117;-62
2022/08/02 08:26:28;;;;;;;7.65;3.75;;;;;;;20.06;65.22;100151.34;5033330;28;20045;-63
2022/08/02 08:29:18;;;;;;;13.00;3.58;;;;;;;20.08;65.26;100154.81;5033004;28;20049;-62
2022/08/02 08:32:03;;;;;;;6.75;4.03;;;;;;;20.07;65.28;100153.94;5032491;28;20045;-61
2022/08/02 08:34:47;;;;;;;8.85;3.35;;;;;;;20.11;65.35;100148.59;5032618;28;20095;-63
2022/08/02 08:37:35;;;;;;;24.75;4.45;;;;;;;20.13;65.16;100142.41;5032827;28;20130;-62
2022/08/02 08:40:22;;;;;;;11.68;3.55;;;;;;;20.15;65.22;100143.25;5033516;28;20057;-61
2022/08/02 08:43:06;;;;;;;5.35;3.85;;;;;;;20.18;65.04;100142.28;5032413;28;20123;-62
2022/08/02 08:45:50;;;;;;;5.97;3.30;;;;;;;20.19;64.98;100147.53;5031884;28;20096;-61
2022/08/02 08:48:43;;;;;;;7.03;3.67;;;;;;;20.21;65.13;100148.38;5033307;28;20047;-61
2022/08/02 08:51:34;;;;;;;22.73;4.05;;;;;;;20.22;65.15;100146.59;5032472;28;20409;-62
2022/08/02 08:54:26;;;;;;;7.13;3.25;;;;;;;20.24;65.22;100150.06;5032372;28;20133;-61
2022/08/02 08:57:19;;;;;;;6.57;3.28;;;;;;;20.27;64.98;100150.00;5032380;28;20132;-62
2022/08/02 09:00:04;;;;;;;12.88;3.47;;;;;;;20.29;65.11;100140.31;5033216;28;20119;-62
2022/08/02 09:02:50;;;;;;;4.43;3.05;;;;;;;20.30;65.15;100141.16;5031673;28;20123;-62
2022/08/02 09:05:42;;;;;;;3.58;2.63;;;;;;;20.30;65.06;100139.41;5032778;28;20060;-63
2022/08/02 09:08:28;;;;;;;26.33;5.03;;;;;;;20.33;65.00;100138.47;5032867;28;20098;-62
2022/08/02 09:11:14;;;;;;;21.75;5.65;;;;;;;20.35;65.13;100134.03;5031830;28;20041;-62
2022/08/02 09:14:02;;;;;;;15.80;4.50;;;;;;;20.36;65.05;100134.00;5032286;28;20057;-62
2022/08/02 09:16:47;;;;;;;8.73;4.85;;;;;;;20.38;64.76;100131.34;5035367;28;20103;-62
2022/08/02 09:19:32;;;;;;;8.20;4.65;;;;;;;20.41;64.93;100133.03;5036598;28;20044;-61
2022/08/02 09:22:17;;;;;;;12.73;4.05;;;;;;;20.42;64.98;100134.75;5036356;28;20045;-61
2022/08/02 09:25:01;;;;;;;6.82;4.03;;;;;;;20.43;65.03;100128.59;5035353;28;20527;-61
2022/08/02 09:27:47;;;;;;;8.38;4.13;;;;;;;20.44;64.85;100139.06;5036194;28;20040;-62
2022/08/02 09:30:31;;;;;;;9.30;3.92;;;;;;;20.46;64.96;100141.69;5036574;28;20106;-61
2022/08/02 09:33:26;;;;;;;8.88;4.35;;;;;;;20.48;64.95;100134.59;5036424;28;20047;-61
2022/08/02 09:36:12;;;;;;;7.25;4.40;;;;;;;20.51;65.03;100124.88;5035524;28;20088;-61
2022/08/02 09:39:04;;;;;;;6.25;4.28;;;;;;;20.51;64.87;100139.78;5035244;28;20464;-61
2022/08/02 09:41:48;;;;;;;5.53;3.70;;;;;;;20.53;64.88;100141.50;5035873;28;20180;-61
2022/08/02 09:44:32;;;;;;;7.78;4.05;;;;;;;20.53;64.73;100128.34;5035943;28;20059;-61
2022/08/02 09:47:18;;;;;;;7.85;4.68;;;;;;;20.56;64.73;100131.78;5035492;28;20044;-61
2022/08/02 09:50:03;;;;;;;7.30;3.58;;;;;;;20.56;64.99;100132.66;5036224;28;20114;-61
2022/08/02 09:52:47;;;;;;;13.63;3.40;;;;;;;20.58;64.56;100132.63;5035955;28;20047;-63
2022/08/02 09:55:31;;;;;;;5.72;4.18;;;;;;;20.58;64.72;100135.25;5035774;28;20052;-63
2022/08/02 09:58:23;;;;;;;4.72;3.60;;;;;;;20.59;64.89;100129.09;5036090;28;20160;-63
2022/08/02 10:01:11;;;;;;;4.72;3.72;;;;;;;20.59;64.93;100135.22;5035024;28;20056;-62
2022/08/02 10:03:59;;;;;;;7.32;3.60;;;;;;;20.61;64.58;100130.81;5034788;28;20048;-62
2022/08/02 10:06:44;;;;;;;7.90;3.42;;;;;;;20.62;64.57;100129.91;5034663;28;20523;-61
2022/08/02 10:09:28;;;;;;;8.05;3.30;;;;;;;20.62;64.62;100127.25;5035450;28;20044;-61
2022/08/02 10:12:12;;;;;;;4.65;3.53;;;;;;;20.64;64.72;100124.59;5034376;28;20103;-61
2022/08/02 10:14:58;;;;;;;11.63;3.97;;;;;;;20.66;64.54;100136.78;5035457;28;20095;-61
2022/08/02 10:17:46;;;;;;;7.03;3.67;;;;;;;20.67;64.71;100128.00;5034522;28;20053;-61
2022/08/02 10:20:35;;;;;;;5.97;3.30;;;;;;;20.68;64.72;100123.59;5035162;28;20057;-63
2022/08/02 10:23:20;;;;;;;6.57;3.80;;;;;;;20.69;64.48;100120.94;5034385;28;20415;-62
2022/08/02 10:26:06;;;;;;;7.10;4.32;;;;;;;20.71;64.55;100127.94;5034646;28;20539;-61
2022/08/02 10:28:51;;;;;;;6.55;3.40;;;;;;;20.72;64.55;100130.50;5034671;28;20052;-62
2022/08/02 10:31:40;;;;;;;7.50;3.63;;;;;;;20.73;64.48;100116.44;5034507;28;20053;-61
2022/08/02 10:34:30;;;;;;;5.10;2.90;;;;;;;20.75;64.50;100116.41;5035184;28;20057;-61
2022/08/02 10:37:16;;;;;;;18.50;3.50;;;;;;;20.76;64.35;100131.34;5034265;28;20616;-61
2022/08/02 10:40:05;;;;;;;5.35;3.25;;;;;;;20.75;64.30;100113.78;5034332;28;20047;-60
2022/08/02 10:42:54;;;;;;;6.38;3.25;;;;;;;20.75;64.30;100119.06;5035221;28;20519;-61
2022/08/02 10:45:39;;;;;;;11.30;3.53;;;;;;;20.75;64.25;100113.78;5034089;28;20048;-61
2022/08/02 10:48:22;;;;;;;8.25;3.35;;;;;;;20.77;64.10;100112.03;5034085;28;20109;-61
2022/08/02 10:51:06;;;;;;;9.80;3.28;;;;;;;20.77;64.22;100110.22;5035339;28;20096;-62
2022/08/02 10:54:07;;;;;;;6.10;2.95;;;;;;;20.79;64.27;100112.81;5033941;28;20084;-63
2022/08/02 10:56:54;;;;;;;5.70;2.80;;;;;;;20.79;64.12;100107.56;5033729;28;20488;-63
2022/08/02 10:59:38;;;;;;;8.48;3.20;;;;;;;20.80;64.15;100112.78;5034158;28;20048;-62
2022/08/02 11:02:34;;;;;;;5.00;3.22;;;;;;;20.80;64.29;100109.28;5034457;28;20052;-62
2022/08/02 11:05:30;;;;;;;6.03;3.20;;;;;;;20.80;64.07;100104.00;5033759;28;20127;-61
2022/08/02 11:08:21;;;;;;;4.03;2.63;;;;;;;20.81;64.14;100109.25;5033976;28;20141;-61
2022/08/02 11:11:08;;;;;;;4.55;2.83;;;;;;;20.81;63.87;100106.63;5034635;28;20057;-63
2022/08/02 11:14:05;;;;;;;4.55;2.70;;;;;;;20.81;64.13;100103.13;5034329;28;20056;-61
2022/08/02 11:16:55;;;;;;;5.28;2.83;;;;;;;20.81;64.10;100104.00;5033468;28;20099;-61
2022/08/02 11:20:07;;;;;;;3.65;2.80;;;;;;;20.83;63.90;100102.19;5034473;28;20056;-61
2022/08/02 11:23:14;;;;;;;5.38;2.70;;;;;;;20.85;63.97;100094.25;5034321;28;20043;-60
2022/08/02 11:25:58;;;;;;;4.68;2.95;;;;;;;20.87;63.97;100096.81;5034048;28;20128;-61
2022/08/02 11:28:48;;;;;;;4.05;2.28;;;;;;;20.88;63.75;100088.00;5033932;28;20128;-62
2022/08/02 11:31:40;;;;;;;4.05;2.63;;;;;;;20.89;63.90;100098.53;5033227;28;20072;-61
2022/08/02 11:34:25;;;;;;;5.65;2.70;;;;;;;20.90;63.71;100100.25;5033291;28;20520;-61
2022/08/02 11:37:11;;;;;;;4.13;2.53;;;;;;;20.92;63.65;100089.66;5033265;28;20049;-61
2022/08/02 11:39:55;;;;;;;4.20;2.55;;;;;;;20.92;63.63;100089.66;5033578;28;20056;-61
2022/08/02 11:42:43;;;;;;;4.55;2.42;;;;;;;20.92;63.59;100094.94;5033910;28;20527;-61
2022/08/02 11:45:29;;;;;;;7.78;2.33;;;;;;;20.93;63.28;100080.88;5033252;28;20099;-61
2022/08/02 11:48:14;;;;;;;9.20;3.20;;;;;;;20.93;63.54;100086.13;5032700;28;20056;-60
2022/08/02 11:51:13;;;;;;;3.05;2.33;;;;;;;20.94;63.51;100090.50;5033196;28;20393;-61
2022/08/02 11:53:57;;;;;;;3.95;2.35;;;;;;;20.92;63.49;100082.66;5033028;28;20056;-61
2022/08/02 11:56:41;;;;;;;8.48;2.70;;;;;;;20.93;63.38;100087.03;5034004;28;20456;-61
2022/08/02 11:59:25;;;;;;;2.97;2.20;;;;;;;20.94;63.34;100093.13;5033743;28;20111;-61
2022/08/02 12:02:12;;;;;;;4.00;2.53;;;;;;;20.94;63.08;100087.88;5032870;28;20088;-60
2022/08/02 12:05:03;;;;;;;6.05;2.63;;;;;;;20.96;63.28;100088.69;5032721;28;20048;-61
2022/08/02 12:07:50;;;;;;;3.83;2.40;;;;;;;20.97;63.14;100082.53;5033892;28;20208;-61
2022/08/02 12:10:37;;;;;;;5.30;2.42;;;;;;;20.97;63.08;100088.66;5033137;28;20120;-61
2022/08/02 12:13:21;;;;;;;2.80;2.17;;;;;;;20.98;63.16;100074.56;5032883;28;20046;-62
2022/08/02 12:19:21;;;;;;;3.05;2.33;;;;;;;20.99;63.04;100073.66;5033332;28;20052;-63
2022/08/02 12:22:06;;;;;;;5.15;2.50;;;;;;;21.01;63.00;100067.50;5032737;28;20401;-62
2022/08/02 12:24:55;;;;;;;7.75;2.33;;;;;;;21.02;62.93;100063.97;5033341;28;20052;-61
2022/08/02 12:27:42;;;;;;;6.50;2.50;;;;;;;21.02;62.95;100070.06;5033452;28;20102;-61
2022/08/02 12:30:26;;;;;;;3.17;2.10;;;;;;;21.04;62.96;100064.78;5033529;28;20133;-62
2022/08/02 12:33:10;;;;;;;3.50;2.50;;;;;;;21.05;62.85;100066.50;5033527;28;20460;-60
2022/08/02 12:35:55;;;;;;;3.95;2.22;;;;;;;21.05;62.84;100064.72;5032642;28;20409;-61
2022/08/02 12:38:49;;;;;;;5.43;2.50;;;;;;;21.07;62.97;100067.34;5033432;28;20048;-61
2022/08/02 12:41:35;;;;;;;;;;;;;;;21.07;62.93;100065.56;5032946;28;20057;-61
2022/08/02 12:44:19;;;;;;;3.25;2.35;;;;;;;21.07;62.58;100062.91;5032520;28;19966;-61
2022/08/02 12:47:10;;;;;;;5.05;2.67;;;;;;;21.09;62.63;100065.53;5032973;28;20543;-61
2022/08/02 12:50:17;;;;;;;3.85;2.80;;;;;;;21.11;62.73;100066.31;5033809;28;20104;-61
2022/08/02 12:53:07;;;;;;;3.92;2.40;;;;;;;21.12;62.66;100052.25;5036211;28;20047;-61
2022/08/02 12:55:55;;;;;;;4.55;2.75;;;;;;;21.13;62.73;100051.34;5036311;28;20127;-62
2022/08/02 12:58:49;;;;;;;4.63;2.80;;;;;;;21.14;62.62;100053.97;5036243;28;20048;-61
2022/08/02 13:01:34;;;;;;;8.95;2.65;;;;;;;21.15;62.39;100057.44;5035609;28;20558;-61
2022/08/02 13:04:18;;;;;;;6.20;2.60;;;;;;;21.16;62.62;100051.28;5036199;28;20103;-61